Terminal Aerodrome Forecast
Issued by NWS

Current Version | Previous Version | Graphics & Text | Print | Product List | Glossary On
Versions: 1 2 3 4 5 6 7 8 9 10 11 12 13 14 15 16 17 18 19 20
000
FTUS41 KILN 261524 AAA
TAFLCK
TAF AMD
KLCK 261524Z 2615/2712 23004KT P6SM SCT025 BKN050
      TEMPO 2615/2617 BKN025
     FM261800 30006KT P6SM VCSH BKN040
      TEMPO 2621/2623 5SM -SHRA
     FM262300 35005KT P6SM BKN040
     FM270400 05004KT P6SM SKC=

USA.gov is the U.S. government's official web portal to all federal, state and local government web resources and services.